sensor_id;sensor_type;location;lat;lon;timestamp;P1;durP1;ratioP1;P2;durP2;ratioP2
12687;SDS011;6408;59.388;17.798;2024-02-15T00:01:11;16.57;;;5.27;;
12687;SDS011;6408;59.388;17.798;2024-02-15T00:03:38;18.03;;;5.73;;
12687;SDS011;6408;59.388;17.798;2024-02-15T00:06:07;15.53;;;5.93;;
12687;SDS011;6408;59.388;17.798;2024-02-15T00:08:34;10.13;;;5.73;;
12687;SDS011;6408;59.388;17.798;2024-02-15T00:11:01;17.93;;;5.30;;
12687;SDS011;6408;59.388;17.798;2024-02-15T00:13:28;18.87;;;5.03;;
12687;SDS011;6408;59.388;17.798;2024-02-15T00:15:58;14.30;;;4.90;;
12687;SDS011;6408;59.388;17.798;2024-02-15T00:18:26;16.73;;;4.73;;
12687;SDS011;6408;59.388;17.798;2024-02-15T00:20:53;24.13;;;5.33;;
12687;SDS011;6408;59.388;17.798;2024-02-15T00:23:21;14.30;;;5.67;;
12687;SDS011;6408;59.388;17.798;2024-02-15T00:25:48;22.27;;;5.60;;
12687;SDS011;6408;59.388;17.798;2024-02-15T00:28:15;22.90;;;5.83;;
12687;SDS011;6408;59.388;17.798;2024-02-15T00:30:42;19.83;;;5.70;;
12687;SDS011;6408;59.388;17.798;2024-02-15T00:33:09;11.60;;;4.60;;
12687;SDS011;6408;59.388;17.798;2024-02-15T00:35:36;30.30;;;6.33;;
12687;SDS011;6408;59.388;17.798;2024-02-15T00:38:03;17.03;;;5.47;;
12687;SDS011;6408;59.388;17.798;2024-02-15T00:40:33;20.87;;;6.13;;
12687;SDS011;6408;59.388;17.798;2024-02-15T00:43:00;30.20;;;5.47;;
12687;SDS011;6408;59.388;17.798;2024-02-15T00:45:27;13.27;;;5.07;;
12687;SDS011;6408;59.388;17.798;2024-02-15T00:47:55;28.90;;;5.77;;
12687;SDS011;6408;59.388;17.798;2024-02-15T00:50:22;22.80;;;5.70;;
12687;SDS011;6408;59.388;17.798;2024-02-15T00:52:49;24.27;;;5.77;;
12687;SDS011;6408;59.388;17.798;2024-02-15T00:55:16;15.03;;;6.10;;
12687;SDS011;6408;59.388;17.798;2024-02-15T00:57:45;25.57;;;4.83;;
12687;SDS011;6408;59.388;17.798;2024-02-15T01:00:13;13.23;;;5.53;;
12687;SDS011;6408;59.388;17.798;2024-02-15T01:02:40;24.33;;;6.70;;
12687;SDS011;6408;59.388;17.798;2024-02-15T01:05:07;18.17;;;5.80;;
12687;SDS011;6408;59.388;17.798;2024-02-15T01:07:35;17.37;;;5.50;;
12687;SDS011;6408;59.388;17.798;2024-02-15T01:10:02;13.90;;;4.67;;
12687;SDS011;6408;59.388;17.798;2024-02-15T01:12:31;10.63;;;4.43;;
12687;SDS011;6408;59.388;17.798;2024-02-15T01:14:59;21.27;;;5.47;;
12687;SDS011;6408;59.388;17.798;2024-02-15T01:17:26;26.10;;;5.13;;
12687;SDS011;6408;59.388;17.798;2024-02-15T01:19:54;198.30;;;18.47;;
12687;SDS011;6408;59.388;17.798;2024-02-15T01:22:21;25.00;;;5.13;;
12687;SDS011;6408;59.388;17.798;2024-02-15T01:24:51;25.67;;;5.57;;
12687;SDS011;6408;59.388;17.798;2024-02-15T01:27:18;24.87;;;5.40;;
12687;SDS011;6408;59.388;17.798;2024-02-15T01:29:46;14.73;;;4.83;;
12687;SDS011;6408;59.388;17.798;2024-02-15T01:32:15;21.40;;;5.40;;
12687;SDS011;6408;59.388;17.798;2024-02-15T01:34:42;31.97;;;6.67;;
12687;SDS011;6408;59.388;17.798;2024-02-15T01:37:09;20.57;;;4.90;;
12687;SDS011;6408;59.388;17.798;2024-02-15T01:39:36;30.27;;;7.07;;
12687;SDS011;6408;59.388;17.798;2024-02-15T01:42:03;29.30;;;6.23;;
12687;SDS011;6408;59.388;17.798;2024-02-15T01:44:30;29.33;;;6.03;;
12687;SDS011;6408;59.388;17.798;2024-02-15T01:46:57;28.73;;;5.73;;
12687;SDS011;6408;59.388;17.798;2024-02-15T01:49:27;13.17;;;5.47;;
12687;SDS011;6408;59.388;17.798;2024-02-15T01:51:54;13.73;;;5.07;;
12687;SDS011;6408;59.388;17.798;2024-02-15T01:54:23;21.43;;;5.63;;
12687;SDS011;6408;59.388;17.798;2024-02-15T01:56:50;19.90;;;6.20;;
12687;SDS011;6408;59.388;17.798;2024-02-15T01:59:18;22.27;;;5.83;;
12687;SDS011;6408;59.388;17.798;2024-02-15T02:01:48;20.80;;;5.90;;
12687;SDS011;6408;59.388;17.798;2024-02-15T02:04:16;19.80;;;6.50;;
12687;SDS011;6408;59.388;17.798;2024-02-15T02:06:46;22.83;;;5.90;;
12687;SDS011;6408;59.388;17.798;2024-02-15T02:09:16;28.80;;;6.27;;
12687;SDS011;6408;59.388;17.798;2024-02-15T02:11:43;27.57;;;6.17;;
12687;SDS011;6408;59.388;17.798;2024-02-15T02:14:13;19.77;;;5.70;;
12687;SDS011;6408;59.388;17.798;2024-02-15T02:16:40;21.53;;;6.30;;
12687;SDS011;6408;59.388;17.798;2024-02-15T02:19:07;17.17;;;5.87;;
12687;SDS011;6408;59.388;17.798;2024-02-15T02:21:35;17.93;;;6.07;;
12687;SDS011;6408;59.388;17.798;2024-02-15T02:24:08;15.73;;;5.40;;
12687;SDS011;6408;59.388;17.798;2024-02-15T02:26:41;16.63;;;6.13;;
12687;SDS011;6408;59.388;17.798;2024-02-15T02:29:08;23.13;;;6.23;;
12687;SDS011;6408;59.388;17.798;2024-02-15T02:31:35;37.03;;;6.03;;
12687;SDS011;6408;59.388;17.798;2024-02-15T02:34:03;31.67;;;6.57;;
12687;SDS011;6408;59.388;17.798;2024-02-15T02:36:31;37.37;;;6.80;;
12687;SDS011;6408;59.388;17.798;2024-02-15T02:38:58;20.30;;;6.00;;
12687;SDS011;6408;59.388;17.798;2024-02-15T02:41:26;26.23;;;7.17;;
12687;SDS011;6408;59.388;17.798;2024-02-15T02:43:56;24.50;;;5.43;;
12687;SDS011;6408;59.388;17.798;2024-02-15T02:46:23;21.47;;;5.53;;
12687;SDS011;6408;59.388;17.798;2024-02-15T02:48:50;26.83;;;5.53;;
12687;SDS011;6408;59.388;17.798;2024-02-15T02:51:17;25.30;;;6.13;;
12687;SDS011;6408;59.388;17.798;2024-02-15T02:53:45;20.33;;;5.53;;
12687;SDS011;6408;59.388;17.798;2024-02-15T02:56:12;17.27;;;5.23;;
12687;SDS011;6408;59.388;17.798;2024-02-15T02:58:39;19.63;;;5.33;;
12687;SDS011;6408;59.388;17.798;2024-02-15T03:01:09;19.10;;;5.93;;
12687;SDS011;6408;59.388;17.798;2024-02-15T03:03:36;10.67;;;5.17;;
12687;SDS011;6408;59.388;17.798;2024-02-15T03:06:04;20.70;;;5.20;;
12687;SDS011;6408;59.388;17.798;2024-02-15T03:08:32;19.93;;;5.57;;
12687;SDS011;6408;59.388;17.798;2024-02-15T03:10:59;24.77;;;6.23;;
12687;SDS011;6408;59.388;17.798;2024-02-15T03:13:27;13.03;;;5.47;;
12687;SDS011;6408;59.388;17.798;2024-02-15T03:15:54;19.07;;;6.17;;
12687;SDS011;6408;59.388;17.798;2024-02-15T03:18:22;17.20;;;5.90;;
12687;SDS011;6408;59.388;17.798;2024-02-15T03:20:49;18.27;;;5.10;;
12687;SDS011;6408;59.388;17.798;2024-02-15T03:23:16;16.10;;;5.47;;
12687;SDS011;6408;59.388;17.798;2024-02-15T03:25:43;15.63;;;5.67;;
12687;SDS011;6408;59.388;17.798;2024-02-15T03:28:11;15.47;;;6.63;;
12687;SDS011;6408;59.388;17.798;2024-02-15T03:30:40;14.07;;;5.63;;
12687;SDS011;6408;59.388;17.798;2024-02-15T03:33:08;10.70;;;5.10;;
12687;SDS011;6408;59.388;17.798;2024-02-15T03:35:36;13.47;;;5.73;;
12687;SDS011;6408;59.388;17.798;2024-02-15T03:38:03;20.83;;;5.47;;
12687;SDS011;6408;59.388;17.798;2024-02-15T03:40:31;13.33;;;5.00;;
12687;SDS011;6408;59.388;17.798;2024-02-15T03:42:58;11.70;;;4.90;;
12687;SDS011;6408;59.388;17.798;2024-02-15T03:45:26;13.23;;;5.73;;
12687;SDS011;6408;59.388;17.798;2024-02-15T03:47:53;15.13;;;5.83;;
12687;SDS011;6408;59.388;17.798;2024-02-15T03:50:21;14.83;;;5.43;;
12687;SDS011;6408;59.388;17.798;2024-02-15T03:52:49;12.87;;;5.90;;
12687;SDS011;6408;59.388;17.798;2024-02-15T03:55:17;18.43;;;7.17;;
12687;SDS011;6408;59.388;17.798;2024-02-15T03:57:47;39.97;;;8.57;;
12687;SDS011;6408;59.388;17.798;2024-02-15T04:00:14;23.83;;;5.80;;
12687;SDS011;6408;59.388;17.798;2024-02-15T04:02:45;37.90;;;6.47;;
12687;SDS011;6408;59.388;17.798;2024-02-15T04:05:14;31.53;;;6.33;;
12687;SDS011;6408;59.388;17.798;2024-02-15T04:07:43;40.60;;;8.07;;
12687;SDS011;6408;59.388;17.798;2024-02-15T04:10:11;27.50;;;6.33;;
12687;SDS011;6408;59.388;17.798;2024-02-15T04:12:38;34.93;;;6.47;;
12687;SDS011;6408;59.388;17.798;2024-02-15T04:15:07;19.77;;;7.30;;
12687;SDS011;6408;59.388;17.798;2024-02-15T04:17:39;25.70;;;7.67;;
12687;SDS011;6408;59.388;17.798;2024-02-15T04:20:06;45.17;;;8.13;;
12687;SDS011;6408;59.388;17.798;2024-02-15T04:22:36;25.73;;;7.53;;
12687;SDS011;6408;59.388;17.798;2024-02-15T04:25:04;25.47;;;7.90;;
12687;SDS011;6408;59.388;17.798;2024-02-15T04:27:34;42.83;;;7.73;;
12687;SDS011;6408;59.388;17.798;2024-02-15T04:30:02;20.20;;;7.80;;
12687;SDS011;6408;59.388;17.798;2024-02-15T04:32:29;21.67;;;7.53;;
12687;SDS011;6408;59.388;17.798;2024-02-15T04:34:58;23.17;;;8.07;;
12687;SDS011;6408;59.388;17.798;2024-02-15T04:37:26;26.17;;;8.20;;
12687;SDS011;6408;59.388;17.798;2024-02-15T04:39:54;26.90;;;7.70;;
12687;SDS011;6408;59.388;17.798;2024-02-15T04:42:21;24.73;;;8.30;;
12687;SDS011;6408;59.388;17.798;2024-02-15T04:44:53;23.27;;;7.57;;
12687;SDS011;6408;59.388;17.798;2024-02-15T04:47:20;29.43;;;7.93;;
12687;SDS011;6408;59.388;17.798;2024-02-15T04:49:47;28.47;;;7.37;;
12687;SDS011;6408;59.388;17.798;2024-02-15T04:52:14;19.27;;;7.60;;
12687;SDS011;6408;59.388;17.798;2024-02-15T04:54:42;19.70;;;6.87;;
12687;SDS011;6408;59.388;17.798;2024-02-15T04:57:10;31.20;;;6.87;;
12687;SDS011;6408;59.388;17.798;2024-02-15T04:59:37;17.00;;;6.20;;
12687;SDS011;6408;59.388;17.798;2024-02-15T05:02:06;22.97;;;7.03;;
12687;SDS011;6408;59.388;17.798;2024-02-15T05:04:34;20.37;;;6.47;;
12687;SDS011;6408;59.388;17.798;2024-02-15T05:07:01;18.13;;;7.87;;
12687;SDS011;6408;59.388;17.798;2024-02-15T05:09:29;28.13;;;8.63;;
12687;SDS011;6408;59.388;17.798;2024-02-15T05:11:59;19.93;;;6.23;;
12687;SDS011;6408;59.388;17.798;2024-02-15T05:14:27;17.93;;;6.10;;
12687;SDS011;6408;59.388;17.798;2024-02-15T05:16:54;22.73;;;7.03;;
12687;SDS011;6408;59.388;17.798;2024-02-15T05:19:23;19.57;;;5.70;;
12687;SDS011;6408;59.388;17.798;2024-02-15T05:21:50;15.17;;;5.60;;
12687;SDS011;6408;59.388;17.798;2024-02-15T05:24:17;18.93;;;6.37;;
12687;SDS011;6408;59.388;17.798;2024-02-15T05:26:45;13.30;;;5.80;;
12687;SDS011;6408;59.388;17.798;2024-02-15T05:29:13;23.13;;;6.13;;
12687;SDS011;6408;59.388;17.798;2024-02-15T05:31:41;30.40;;;6.50;;
12687;SDS011;6408;59.388;17.798;2024-02-15T05:34:10;21.57;;;5.93;;
12687;SDS011;6408;59.388;17.798;2024-02-15T05:36:39;23.17;;;5.93;;
12687;SDS011;6408;59.388;17.798;2024-02-15T05:39:06;18.43;;;6.13;;
12687;SDS011;6408;59.388;17.798;2024-02-15T05:41:36;16.37;;;6.33;;
12687;SDS011;6408;59.388;17.798;2024-02-15T05:44:03;24.57;;;6.10;;
12687;SDS011;6408;59.388;17.798;2024-02-15T05:46:32;21.07;;;6.57;;
12687;SDS011;6408;59.388;17.798;2024-02-15T05:49:05;18.70;;;5.43;;
12687;SDS011;6408;59.388;17.798;2024-02-15T05:51:33;23.83;;;6.90;;
12687;SDS011;6408;59.388;17.798;2024-02-15T05:54:02;24.67;;;6.70;;
12687;SDS011;6408;59.388;17.798;2024-02-15T05:56:29;19.07;;;6.77;;
12687;SDS011;6408;59.388;17.798;2024-02-15T05:58:56;25.20;;;6.73;;
12687;SDS011;6408;59.388;17.798;2024-02-15T06:01:23;27.33;;;7.83;;
12687;SDS011;6408;59.388;17.798;2024-02-15T06:03:50;18.53;;;6.47;;
12687;SDS011;6408;59.388;17.798;2024-02-15T06:06:20;22.30;;;6.73;;
12687;SDS011;6408;59.388;17.798;2024-02-15T06:08:48;19.70;;;7.23;;
12687;SDS011;6408;59.388;17.798;2024-02-15T06:11:20;29.83;;;7.60;;
12687;SDS011;6408;59.388;17.798;2024-02-15T06:13:46;21.13;;;6.33;;
12687;SDS011;6408;59.388;17.798;2024-02-15T06:16:14;31.77;;;9.33;;
12687;SDS011;6408;59.388;17.798;2024-02-15T06:18:41;20.60;;;7.07;;
12687;SDS011;6408;59.388;17.798;2024-02-15T06:21:08;21.13;;;7.30;;
12687;SDS011;6408;59.388;17.798;2024-02-15T06:23:35;26.87;;;7.37;;
12687;SDS011;6408;59.388;17.798;2024-02-15T06:26:02;19.90;;;8.57;;
12687;SDS011;6408;59.388;17.798;2024-02-15T06:28:31;19.33;;;7.60;;
12687;SDS011;6408;59.388;17.798;2024-02-15T06:31:16;24.73;;;7.87;;
12687;SDS011;6408;59.388;17.798;2024-02-15T06:34:00;25.27;;;7.73;;
12687;SDS011;6408;59.388;17.798;2024-02-15T06:36:45;17.60;;;7.83;;
12687;SDS011;6408;59.388;17.798;2024-02-15T06:39:31;29.33;;;8.67;;
12687;SDS011;6408;59.388;17.798;2024-02-15T06:42:06;24.27;;;8.63;;
12687;SDS011;6408;59.388;17.798;2024-02-15T06:44:34;33.73;;;8.73;;
12687;SDS011;6408;59.388;17.798;2024-02-15T06:47:01;24.10;;;8.67;;
12687;SDS011;6408;59.388;17.798;2024-02-15T06:49:29;27.80;;;9.60;;
12687;SDS011;6408;59.388;17.798;2024-02-15T06:51:56;26.63;;;9.00;;
12687;SDS011;6408;59.388;17.798;2024-02-15T06:54:24;25.13;;;10.57;;
12687;SDS011;6408;59.388;17.798;2024-02-15T06:56:51;26.47;;;9.30;;
12687;SDS011;6408;59.388;17.798;2024-02-15T06:59:19;18.20;;;8.50;;
12687;SDS011;6408;59.388;17.798;2024-02-15T07:01:49;17.23;;;8.83;;
12687;SDS011;6408;59.388;17.798;2024-02-15T07:04:17;22.37;;;9.10;;
12687;SDS011;6408;59.388;17.798;2024-02-15T07:06:44;18.83;;;8.27;;
12687;SDS011;6408;59.388;17.798;2024-02-15T07:09:13;23.83;;;9.20;;
12687;SDS011;6408;59.388;17.798;2024-02-15T07:11:42;19.75;;;9.25;;
12687;SDS011;6408;59.388;17.798;2024-02-15T07:14:11;26.43;;;10.00;;
12687;SDS011;6408;59.388;17.798;2024-02-15T07:16:38;18.33;;;8.63;;
12687;SDS011;6408;59.388;17.798;2024-02-15T07:19:07;23.30;;;9.37;;
12687;SDS011;6408;59.388;17.798;2024-02-15T07:21:34;23.00;;;10.00;;
12687;SDS011;6408;59.388;17.798;2024-02-15T07:24:03;21.03;;;8.93;;
12687;SDS011;6408;59.388;17.798;2024-02-15T07:26:31;19.97;;;8.53;;
12687;SDS011;6408;59.388;17.798;2024-02-15T07:29:00;18.53;;;8.50;;
12687;SDS011;6408;59.388;17.798;2024-02-15T07:31:27;22.07;;;8.50;;
12687;SDS011;6408;59.388;17.798;2024-02-15T07:33:55;15.03;;;7.70;;
12687;SDS011;6408;59.388;17.798;2024-02-15T07:36:24;14.97;;;7.70;;
12687;SDS011;6408;59.388;17.798;2024-02-15T07:38:52;18.20;;;8.03;;
12687;SDS011;6408;59.388;17.798;2024-02-15T07:41:23;14.53;;;7.50;;
12687;SDS011;6408;59.388;17.798;2024-02-15T07:43:50;11.77;;;6.77;;
12687;SDS011;6408;59.388;17.798;2024-02-15T07:46:19;13.50;;;6.00;;
12687;SDS011;6408;59.388;17.798;2024-02-15T07:48:47;15.80;;;7.10;;
12687;SDS011;6408;59.388;17.798;2024-02-15T07:51:14;16.77;;;7.30;;
12687;SDS011;6408;59.388;17.798;2024-02-15T07:53:44;12.97;;;6.40;;
12687;SDS011;6408;59.388;17.798;2024-02-15T07:56:12;14.40;;;7.13;;
12687;SDS011;6408;59.388;17.798;2024-02-15T07:58:41;11.33;;;5.80;;
12687;SDS011;6408;59.388;17.798;2024-02-15T08:01:11;11.77;;;5.70;;
12687;SDS011;6408;59.388;17.798;2024-02-15T08:03:38;12.03;;;6.10;;
12687;SDS011;6408;59.388;17.798;2024-02-15T08:06:09;11.63;;;6.30;;
12687;SDS011;6408;59.388;17.798;2024-02-15T08:08:38;12.97;;;6.27;;
12687;SDS011;6408;59.388;17.798;2024-02-15T08:11:07;12.97;;;5.50;;
12687;SDS011;6408;59.388;17.798;2024-02-15T08:13:39;8.37;;;4.73;;
12687;SDS011;6408;59.388;17.798;2024-02-15T08:16:07;10.77;;;5.17;;
12687;SDS011;6408;59.388;17.798;2024-02-15T08:18:34;9.20;;;5.33;;
12687;SDS011;6408;59.388;17.798;2024-02-15T08:21:02;12.00;;;5.53;;
12687;SDS011;6408;59.388;17.798;2024-02-15T08:23:30;11.60;;;5.70;;
12687;SDS011;6408;59.388;17.798;2024-02-15T08:25:58;8.93;;;4.97;;
12687;SDS011;6408;59.388;17.798;2024-02-15T08:28:26;8.77;;;5.10;;
12687;SDS011;6408;59.388;17.798;2024-02-15T08:30:54;10.53;;;5.77;;
12687;SDS011;6408;59.388;17.798;2024-02-15T08:33:22;11.43;;;6.03;;
12687;SDS011;6408;59.388;17.798;2024-02-15T08:35:49;9.20;;;4.53;;
12687;SDS011;6408;59.388;17.798;2024-02-15T08:38:18;9.17;;;5.00;;
12687;SDS011;6408;59.388;17.798;2024-02-15T08:40:46;8.80;;;4.97;;
12687;SDS011;6408;59.388;17.798;2024-02-15T08:43:13;10.00;;;5.73;;
12687;SDS011;6408;59.388;17.798;2024-02-15T08:45:42;9.83;;;5.43;;
12687;SDS011;6408;59.388;17.798;2024-02-15T08:48:10;8.73;;;4.80;;
12687;SDS011;6408;59.388;17.798;2024-02-15T08:50:37;9.70;;;4.57;;
12687;SDS011;6408;59.388;17.798;2024-02-15T08:53:04;12.97;;;5.37;;
12687;SDS011;6408;59.388;17.798;2024-02-15T08:55:32;26.00;;;5.73;;
12687;SDS011;6408;59.388;17.798;2024-02-15T08:58:00;20.43;;;5.17;;
12687;SDS011;6408;59.388;17.798;2024-02-15T09:00:29;9.13;;;4.23;;
12687;SDS011;6408;59.388;17.798;2024-02-15T09:02:57;27.90;;;6.50;;
12687;SDS011;6408;59.388;17.798;2024-02-15T09:05:24;12.70;;;4.43;;
12687;SDS011;6408;59.388;17.798;2024-02-15T09:07:51;10.97;;;5.87;;
12687;SDS011;6408;59.388;17.798;2024-02-15T09:10:18;12.87;;;6.23;;
12687;SDS011;6408;59.388;17.798;2024-02-15T09:12:47;9.27;;;5.07;;
12687;SDS011;6408;59.388;17.798;2024-02-15T09:15:14;11.13;;;5.60;;
12687;SDS011;6408;59.388;17.798;2024-02-15T09:17:42;9.93;;;5.17;;
12687;SDS011;6408;59.388;17.798;2024-02-15T09:20:12;10.20;;;5.47;;
12687;SDS011;6408;59.388;17.798;2024-02-15T09:22:46;11.77;;;6.20;;
12687;SDS011;6408;59.388;17.798;2024-02-15T09:25:14;8.80;;;5.30;;
12687;SDS011;6408;59.388;17.798;2024-02-15T09:27:41;9.90;;;5.73;;
12687;SDS011;6408;59.388;17.798;2024-02-15T09:30:11;10.57;;;5.47;;
12687;SDS011;6408;59.388;17.798;2024-02-15T09:32:39;8.90;;;5.23;;
12687;SDS011;6408;59.388;17.798;2024-02-15T09:35:06;10.43;;;5.30;;
12687;SDS011;6408;59.388;17.798;2024-02-15T09:37:36;6.73;;;4.57;;
12687;SDS011;6408;59.388;17.798;2024-02-15T09:40:07;10.43;;;5.83;;
12687;SDS011;6408;59.388;17.798;2024-02-15T09:42:35;9.37;;;5.27;;
12687;SDS011;6408;59.388;17.798;2024-02-15T09:45:04;10.67;;;5.67;;
12687;SDS011;6408;59.388;17.798;2024-02-15T09:47:35;9.13;;;5.77;;
12687;SDS011;6408;59.388;17.798;2024-02-15T09:50:04;9.33;;;6.17;;
12687;SDS011;6408;59.388;17.798;2024-02-15T09:52:32;9.17;;;5.73;;
12687;SDS011;6408;59.388;17.798;2024-02-15T09:55:03;10.40;;;6.57;;
12687;SDS011;6408;59.388;17.798;2024-02-15T09:57:35;11.13;;;6.37;;
12687;SDS011;6408;59.388;17.798;2024-02-15T10:00:02;10.70;;;6.27;;
12687;SDS011;6408;59.388;17.798;2024-02-15T10:02:32;10.57;;;6.33;;
12687;SDS011;6408;59.388;17.798;2024-02-15T10:05:01;9.97;;;5.70;;
12687;SDS011;6408;59.388;17.798;2024-02-15T10:07:28;12.60;;;5.67;;
12687;SDS011;6408;59.388;17.798;2024-02-15T10:09:55;9.93;;;6.07;;
12687;SDS011;6408;59.388;17.798;2024-02-15T10:12:23;10.47;;;7.13;;
12687;SDS011;6408;59.388;17.798;2024-02-15T10:15:04;10.60;;;6.33;;
12687;SDS011;6408;59.388;17.798;2024-02-15T10:17:32;8.87;;;6.10;;
12687;SDS011;6408;59.388;17.798;2024-02-15T10:20:05;8.97;;;6.40;;
12687;SDS011;6408;59.388;17.798;2024-02-15T10:22:35;10.20;;;6.17;;
12687;SDS011;6408;59.388;17.798;2024-02-15T10:25:11;11.30;;;6.07;;
12687;SDS011;6408;59.388;17.798;2024-02-15T10:27:40;10.70;;;6.33;;
12687;SDS011;6408;59.388;17.798;2024-02-15T10:30:14;12.53;;;6.53;;
12687;SDS011;6408;59.388;17.798;2024-02-15T10:32:42;10.23;;;6.93;;
12687;SDS011;6408;59.388;17.798;2024-02-15T10:35:09;10.13;;;6.60;;
12687;SDS011;6408;59.388;17.798;2024-02-15T10:37:40;14.63;;;8.07;;
12687;SDS011;6408;59.388;17.798;2024-02-15T10:40:08;13.40;;;7.80;;
12687;SDS011;6408;59.388;17.798;2024-02-15T10:42:38;12.23;;;7.90;;
12687;SDS011;6408;59.388;17.798;2024-02-15T10:45:08;14.73;;;8.50;;
12687;SDS011;6408;59.388;17.798;2024-02-15T10:47:37;14.37;;;6.63;;
12687;SDS011;6408;59.388;17.798;2024-02-15T10:50:06;16.33;;;8.20;;
12687;SDS011;6408;59.388;17.798;2024-02-15T10:52:36;11.93;;;7.67;;
12687;SDS011;6408;59.388;17.798;2024-02-15T10:55:08;14.73;;;8.70;;
12687;SDS011;6408;59.388;17.798;2024-02-15T10:57:40;10.10;;;6.60;;
12687;SDS011;6408;59.388;17.798;2024-02-15T11:00:13;11.97;;;7.40;;
12687;SDS011;6408;59.388;17.798;2024-02-15T11:02:48;12.07;;;7.10;;
12687;SDS011;6408;59.388;17.798;2024-02-15T11:05:20;14.90;;;8.70;;
12687;SDS011;6408;59.388;17.798;2024-02-15T11:07:49;13.37;;;8.23;;
12687;SDS011;6408;59.388;17.798;2024-02-15T11:10:16;13.20;;;7.87;;
12687;SDS011;6408;59.388;17.798;2024-02-15T11:12:43;13.50;;;8.10;;
12687;SDS011;6408;59.388;17.798;2024-02-15T11:15:12;11.47;;;7.33;;
12687;SDS011;6408;59.388;17.798;2024-02-15T11:21:10;15.67;;;8.70;;
12687;SDS011;6408;59.388;17.798;2024-02-15T11:23:37;16.03;;;10.00;;
12687;SDS011;6408;59.388;17.798;2024-02-15T11:26:08;13.40;;;8.83;;
12687;SDS011;6408;59.388;17.798;2024-02-15T11:28:43;15.87;;;8.83;;
12687;SDS011;6408;59.388;17.798;2024-02-15T11:40:23;16.10;;;9.60;;
12687;SDS011;6408;59.388;17.798;2024-02-15T11:42:52;18.07;;;10.33;;
12687;SDS011;6408;59.388;17.798;2024-02-15T11:45:21;15.77;;;10.60;;
12687;SDS011;6408;59.388;17.798;2024-02-15T11:47:50;16.03;;;10.03;;
12687;SDS011;6408;59.388;17.798;2024-02-15T11:50:19;20.40;;;11.03;;
12687;SDS011;6408;59.388;17.798;2024-02-15T11:52:47;18.33;;;10.47;;
12687;SDS011;6408;59.388;17.798;2024-02-15T11:55:18;16.63;;;9.73;;
12687;SDS011;6408;59.388;17.798;2024-02-15T11:57:55;17.87;;;11.30;;
12687;SDS011;6408;59.388;17.798;2024-02-15T12:00:31;19.60;;;11.73;;
12687;SDS011;6408;59.388;17.798;2024-02-15T12:03:16;15.17;;;9.40;;
12687;SDS011;6408;59.388;17.798;2024-02-15T12:06:01;14.70;;;9.03;;
12687;SDS011;6408;59.388;17.798;2024-02-15T12:08:46;15.40;;;8.70;;
12687;SDS011;6408;59.388;17.798;2024-02-15T12:11:32;16.83;;;9.50;;
12687;SDS011;6408;59.388;17.798;2024-02-15T12:14:16;17.10;;;10.03;;
12687;SDS011;6408;59.388;17.798;2024-02-15T12:17:03;18.70;;;10.30;;
12687;SDS011;6408;59.388;17.798;2024-02-15T12:19:49;19.10;;;10.97;;
12687;SDS011;6408;59.388;17.798;2024-02-15T12:22:19;17.47;;;10.67;;
12687;SDS011;6408;59.388;17.798;2024-02-15T12:24:57;19.40;;;10.43;;
12687;SDS011;6408;59.388;17.798;2024-02-15T12:27:26;16.77;;;9.93;;
12687;SDS011;6408;59.388;17.798;2024-02-15T12:29:54;20.23;;;10.60;;
12687;SDS011;6408;59.388;17.798;2024-02-15T12:32:26;19.33;;;11.17;;
12687;SDS011;6408;59.388;17.798;2024-02-15T12:35:08;16.27;;;10.13;;
12687;SDS011;6408;59.388;17.798;2024-02-15T12:37:37;16.30;;;10.33;;
12687;SDS011;6408;59.388;17.798;2024-02-15T12:40:15;16.10;;;10.50;;
12687;SDS011;6408;59.388;17.798;2024-02-15T12:42:44;14.47;;;9.60;;
12687;SDS011;6408;59.388;17.798;2024-02-15T12:45:15;15.77;;;10.50;;
12687;SDS011;6408;59.388;17.798;2024-02-15T12:47:47;17.73;;;10.67;;
12687;SDS011;6408;59.388;17.798;2024-02-15T12:50:16;20.10;;;10.90;;
12687;SDS011;6408;59.388;17.798;2024-02-15T12:52:44;15.73;;;10.97;;
12687;SDS011;6408;59.388;17.798;2024-02-15T12:55:14;17.37;;;10.33;;
12687;SDS011;6408;59.388;17.798;2024-02-15T12:57:42;18.47;;;11.07;;
12687;SDS011;6408;59.388;17.798;2024-02-15T13:00:11;20.17;;;10.90;;
12687;SDS011;6408;59.388;17.798;2024-02-15T13:02:43;18.20;;;10.33;;
12687;SDS011;6408;59.388;17.798;2024-02-15T13:05:14;15.97;;;10.27;;
12687;SDS011;6408;59.388;17.798;2024-02-15T13:07:43;19.83;;;11.43;;
12687;SDS011;6408;59.388;17.798;2024-02-15T13:10:10;17.73;;;11.53;;
12687;SDS011;6408;59.388;17.798;2024-02-15T13:12:40;16.73;;;10.80;;
12687;SDS011;6408;59.388;17.798;2024-02-15T13:15:08;21.17;;;11.30;;
12687;SDS011;6408;59.388;17.798;2024-02-15T13:17:39;18.93;;;11.10;;
12687;SDS011;6408;59.388;17.798;2024-02-15T13:20:07;20.83;;;12.27;;
12687;SDS011;6408;59.388;17.798;2024-02-15T13:22:42;23.67;;;11.33;;
12687;SDS011;6408;59.388;17.798;2024-02-15T13:25:09;18.83;;;12.07;;
12687;SDS011;6408;59.388;17.798;2024-02-15T13:27:37;19.43;;;11.80;;
12687;SDS011;6408;59.388;17.798;2024-02-15T13:30:04;16.13;;;10.03;;
12687;SDS011;6408;59.388;17.798;2024-02-15T13:32:34;16.30;;;10.57;;
12687;SDS011;6408;59.388;17.798;2024-02-15T13:35:02;17.27;;;11.27;;
12687;SDS011;6408;59.388;17.798;2024-02-15T13:37:37;17.17;;;9.63;;
12687;SDS011;6408;59.388;17.798;2024-02-15T13:40:19;13.30;;;8.50;;
12687;SDS011;6408;59.388;17.798;2024-02-15T13:42:48;15.80;;;9.33;;
12687;SDS011;6408;59.388;17.798;2024-02-15T13:45:19;13.63;;;9.17;;
12687;SDS011;6408;59.388;17.798;2024-02-15T13:47:47;15.27;;;9.20;;
12687;SDS011;6408;59.388;17.798;2024-02-15T13:50:15;16.83;;;9.00;;
12687;SDS011;6408;59.388;17.798;2024-02-15T13:52:45;17.30;;;9.63;;
12687;SDS011;6408;59.388;17.798;2024-02-15T13:55:12;14.37;;;8.77;;
12687;SDS011;6408;59.388;17.798;2024-02-15T13:57:40;16.20;;;9.23;;
12687;SDS011;6408;59.388;17.798;2024-02-15T14:00:09;16.27;;;9.43;;
12687;SDS011;6408;59.388;17.798;2024-02-15T14:02:46;24.70;;;10.40;;
12687;SDS011;6408;59.388;17.798;2024-02-15T14:05:13;19.53;;;9.73;;
12687;SDS011;6408;59.388;17.798;2024-02-15T14:07:46;21.40;;;9.80;;
12687;SDS011;6408;59.388;17.798;2024-02-15T14:10:14;18.90;;;10.83;;
12687;SDS011;6408;59.388;17.798;2024-02-15T14:12:44;16.27;;;9.93;;
12687;SDS011;6408;59.388;17.798;2024-02-15T14:15:11;18.80;;;9.80;;
12687;SDS011;6408;59.388;17.798;2024-02-15T14:17:38;19.20;;;11.63;;
12687;SDS011;6408;59.388;17.798;2024-02-15T14:20:05;37.37;;;11.23;;
12687;SDS011;6408;59.388;17.798;2024-02-15T14:22:38;24.97;;;10.87;;
12687;SDS011;6408;59.388;17.798;2024-02-15T14:25:07;16.87;;;9.30;;
12687;SDS011;6408;59.388;17.798;2024-02-15T14:27:34;38.83;;;11.43;;
12687;SDS011;6408;59.388;17.798;2024-02-15T14:30:02;26.13;;;10.80;;
12687;SDS011;6408;59.388;17.798;2024-02-15T14:32:47;28.83;;;11.30;;
12687;SDS011;6408;59.388;17.798;2024-02-15T14:35:26;26.97;;;12.07;;
12687;SDS011;6408;59.388;17.798;2024-02-15T14:37:54;21.10;;;11.47;;
12687;SDS011;6408;59.388;17.798;2024-02-15T14:40:24;23.83;;;12.20;;
12687;SDS011;6408;59.388;17.798;2024-02-15T14:42:52;28.73;;;12.73;;
12687;SDS011;6408;59.388;17.798;2024-02-15T14:45:19;26.97;;;12.70;;
12687;SDS011;6408;59.388;17.798;2024-02-15T14:47:47;26.10;;;13.33;;
12687;SDS011;6408;59.388;17.798;2024-02-15T14:50:14;35.47;;;14.70;;
12687;SDS011;6408;59.388;17.798;2024-02-15T14:52:41;38.23;;;13.00;;
12687;SDS011;6408;59.388;17.798;2024-02-15T14:55:09;37.50;;;12.13;;
12687;SDS011;6408;59.388;17.798;2024-02-15T14:57:38;35.50;;;12.43;;